Time;durP1;ratioP1;P1;durP2;ratioP2;P2;SDS_P1;SDS_P2;PMS_P1;PMS_P2;Temp;Humidity;BMP_temperature;BMP_pressure;BME280_temperature;BME280_humidity;BME280_pressure;Samples;Min_cycle;Max_cycle;Signal;HPM_P1;HPM_P2
2023/11/13 00:00:14;;;;;;;5.15;1.85;;;;;;;;;;4993113;28;20049;-79
2023/11/13 00:02:43;;;;;;;5.90;1.92;;;;;;;;;;4997483;28;20053;-81
2023/11/13 00:05:10;;;;;;;10.65;2.25;;;;;;;;;;5011948;28;20038;-80
2023/11/13 00:07:40;;;;;;;9.60;2.30;;;;;;;;;;4996648;28;20035;-81
2023/11/13 00:10:08;;;;;;;;;;;;;;;;;;5006636;28;20053;-82
2023/11/13 00:12:34;;;;;;;5.35;1.85;;;;;;;;;;4997066;28;19913;-81
2023/11/13 00:15:00;;;;;;;13.00;2.33;;;;;;;;;;5004887;28;20033;-80
2023/11/13 00:17:27;;;;;;;8.45;1.77;;;;;;;;;;5028594;28;20420;-82
2023/11/13 00:19:53;;;;;;;4.70;2.10;;;;;;;;;;5002516;28;20038;-83
2023/11/13 00:22:19;;;;;;;8.40;2.30;;;;;;;;;;4990067;28;20041;-82
2023/11/13 00:24:47;;;;;;;6.60;1.90;;;;;;;;;;5001038;28;20029;-83
2023/11/13 00:27:19;;;;;;;5.70;1.70;;;;;;;;;;4986006;28;20528;-82
2023/11/13 00:29:50;;;;;;;4.77;1.70;;;;;;;;;;5031708;28;20038;-83
2023/11/13 00:32:16;;;;;;;5.80;1.70;;;;;;;;;;4981431;28;20053;-83
2023/11/13 00:34:42;;;;;;;4.72;1.40;;;;;;;;;;5002724;28;20412;-80
2023/11/13 00:37:10;;;;;;;8.80;2.15;;;;;;;;;;4992923;28;20038;-81
2023/11/13 00:39:37;;;;;;;5.53;1.63;;;;;;;;;;5026781;28;20045;-81
2023/11/13 00:42:06;;;;;;;6.32;2.00;;;;;;;;;;5015138;28;20495;-80
2023/11/13 00:44:32;;;;;;;5.15;1.88;;;;;;;;;;4995518;28;20041;-81
2023/11/13 00:46:58;;;;;;;4.53;1.20;;;;;;;;;;4994706;28;20042;-80
2023/11/13 00:49:27;;;;;;;3.45;1.08;;;;;;;;;;5025852;28;20045;-80
2023/11/13 00:51:55;;;;;;;3.83;1.50;;;;;;;;;;5016396;28;20041;-80
2023/11/13 00:54:21;;;;;;;4.90;1.40;;;;;;;;;;5007811;28;20386;-80
2023/11/13 00:56:48;;;;;;;6.75;1.50;;;;;;;;;;4990302;28;20033;-80
2023/11/13 00:59:19;;;;;;;3.05;1.40;;;;;;;;;;5011418;28;20033;-81
2023/11/13 01:01:47;;;;;;;4.28;1.60;;;;;;;;;;5013875;28;20385;-80
2023/11/13 01:04:16;;;;;;;3.55;1.27;;;;;;;;;;5011079;28;20052;-80
2023/11/13 01:06:48;;;;;;;5.78;1.23;;;;;;;;;;5000512;28;20053;-81
2023/11/13 01:09:14;;;;;;;5.15;1.35;;;;;;;;;;5034199;28;20041;-79
2023/11/13 01:11:45;;;;;;;4.22;1.08;;;;;;;;;;5020221;28;20034;-80
2023/11/13 01:14:12;;;;;;;5.45;1.10;;;;;;;;;;4999784;28;20037;-79
2023/11/13 01:16:43;;;;;;;3.20;1.00;;;;;;;;;;4995296;28;20042;-81
2023/11/13 01:19:11;;;;;;;4.15;1.30;;;;;;;;;;5013123;28;20056;-80
2023/11/13 01:21:37;;;;;;;2.78;1.05;;;;;;;;;;5018246;28;20041;-81
2023/11/13 01:24:04;;;;;;;3.50;1.08;;;;;;;;;;5015100;28;20037;-83
2023/11/13 01:26:31;;;;;;;3.17;1.20;;;;;;;;;;5044673;28;20053;-82
2023/11/13 01:28:59;;;;;;;6.03;1.23;;;;;;;;;;5014732;28;20030;-82
2023/11/13 01:31:28;;;;;;;6.03;1.00;;;;;;;;;;5000383;28;20041;-79
2023/11/13 01:33:54;;;;;;;4.45;0.82;;;;;;;;;;5015612;28;20045;-80
2023/11/13 01:36:20;;;;;;;4.10;1.08;;;;;;;;;;5015644;28;20547;-81
2023/11/13 01:38:51;;;;;;;3.00;0.90;;;;;;;;;;5045870;28;20030;-79
2023/11/13 01:41:18;;;;;;;6.55;1.75;;;;;;;;;;5014045;28;20038;-83
2023/11/13 01:43:51;;;;;;;3.80;1.23;;;;;;;;;;4998270;28;20045;-84
2023/11/13 01:46:19;;;;;;;2.42;0.88;;;;;;;;;;5012425;28;20033;-82
2023/11/13 01:48:48;;;;;;;3.20;1.10;;;;;;;;;;5014778;28;20042;-83
2023/11/13 01:51:17;;;;;;;5.30;1.20;;;;;;;;;;5030793;28;20420;-81
2023/11/13 01:53:45;;;;;;;3.28;0.90;;;;;;;;;;5027866;28;20416;-79
2023/11/13 01:56:14;;;;;;;3.35;0.70;;;;;;;;;;4995643;28;20048;-81
2023/11/13 01:58:43;;;;;;;1.65;0.70;;;;;;;;;;5010830;28;20037;-83
2023/11/13 02:01:13;;;;;;;3.05;0.93;;;;;;;;;;4996484;28;20121;-81
2023/11/13 02:03:40;;;;;;;2.70;1.00;;;;;;;;;;5012739;28;20049;-80
2023/11/13 02:06:07;;;;;;;1.88;0.60;;;;;;;;;;4995703;28;20057;-82
2023/11/13 02:08:33;;;;;;;1.25;0.70;;;;;;;;;;5017715;28;20030;-83
2023/11/13 02:11:06;;;;;;;0.95;0.68;;;;;;;;;;5012095;28;20042;-81
2023/11/13 02:13:34;;;;;;;3.80;0.80;;;;;;;;;;4999543;28;20392;-81
2023/11/13 02:16:03;;;;;;;1.50;0.70;;;;;;;;;;4996312;28;20404;-81
2023/11/13 02:18:34;;;;;;;3.22;0.80;;;;;;;;;;5014135;28;20034;-84
2023/11/13 02:21:03;;;;;;;0.75;0.60;;;;;;;;;;5014048;28;20067;-84
2023/11/13 02:23:31;;;;;;;0.95;0.80;;;;;;;;;;5013300;28;20037;-84
2023/11/13 02:26:01;;;;;;;1.20;0.70;;;;;;;;;;4982371;28;20037;-81
2023/11/13 02:28:28;;;;;;;2.30;0.75;;;;;;;;;;4997158;28;20046;-82
2023/11/13 02:30:54;;;;;;;1.42;0.70;;;;;;;;;;5012098;28;20038;-81
2023/11/13 02:33:20;;;;;;;1.70;0.70;;;;;;;;;;5013303;28;20076;-81
2023/11/13 02:35:48;;;;;;;1.33;0.60;;;;;;;;;;4995960;28;20419;-81
2023/11/13 02:38:19;;;;;;;0.73;0.50;;;;;;;;;;4997413;28;20060;-81
2023/11/13 02:40:45;;;;;;;1.20;0.70;;;;;;;;;;5011884;28;20520;-82
2023/11/13 02:43:11;;;;;;;3.67;0.50;;;;;;;;;;5017782;28;20033;-82
2023/11/13 02:45:39;;;;;;;1.13;0.77;;;;;;;;;;5020227;28;20037;-82
2023/11/13 02:48:10;;;;;;;1.63;0.55;;;;;;;;;;5011840;28;20033;-81
2023/11/13 02:50:40;;;;;;;1.48;0.63;;;;;;;;;;5010100;28;20532;-81
2023/11/13 02:53:06;;;;;;;1.27;0.63;;;;;;;;;;4995359;28;20037;-83
2023/11/13 02:55:34;;;;;;;3.08;0.63;;;;;;;;;;5026070;28;20042;-81
2023/11/13 02:58:03;;;;;;;1.08;0.70;;;;;;;;;;4971843;28;20046;-82
2023/11/13 03:00:35;;;;;;;0.95;0.50;;;;;;;;;;5010711;28;20488;-84
2023/11/13 03:03:02;;;;;;;2.33;0.80;;;;;;;;;;5039916;28;20042;-84
2023/11/13 03:05:29;;;;;;;2.15;0.80;;;;;;;;;;4981693;28;20038;-82
2023/11/13 03:07:57;;;;;;;1.45;0.60;;;;;;;;;;5013297;28;20042;-80
2023/11/13 03:10:24;;;;;;;1.92;0.90;;;;;;;;;;5012718;28;20038;-81
2023/11/13 03:12:55;;;;;;;;;;;;;;;;;;5044339;28;20033;-81
2023/11/13 03:15:26;;;;;;;4.03;0.85;;;;;;;;;;5010809;28;19928;-81
2023/11/13 03:17:52;;;;;;;0.85;0.45;;;;;;;;;;4979132;28;20037;-81
2023/11/13 03:20:22;;;;;;;2.58;0.82;;;;;;;;;;4995311;28;20497;-80
2023/11/13 03:22:51;;;;;;;3.88;1.10;;;;;;;;;;5012989;28;20475;-80
2023/11/13 03:25:19;;;;;;;3.03;0.90;;;;;;;;;;4994391;28;20125;-80
2023/11/13 03:27:46;;;;;;;5.95;0.90;;;;;;;;;;5013202;28;20053;-81
2023/11/13 03:30:13;;;;;;;2.42;0.80;;;;;;;;;;5027048;28;20044;-82
2023/11/13 03:32:42;;;;;;;5.70;1.15;;;;;;;;;;4994787;28;20037;-81
2023/11/13 03:35:11;;;;;;;6.55;1.42;;;;;;;;;;4994848;28;20037;-80
2023/11/13 03:37:37;;;;;;;2.50;0.80;;;;;;;;;;5004069;28;20041;-82
2023/11/13 03:40:07;;;;;;;5.22;1.10;;;;;;;;;;4998397;28;20048;-82
2023/11/13 03:42:36;;;;;;;5.15;1.20;;;;;;;;;;5020089;28;20049;-78
2023/11/13 03:45:08;;;;;;;6.13;1.30;;;;;;;;;;5016470;28;20040;-80
2023/11/13 03:47:39;;;;;;;3.92;0.93;;;;;;;;;;4995748;28;20052;-81
2023/11/13 03:50:09;;;;;;;6.85;0.98;;;;;;;;;;5009529;28;20046;-81
2023/11/13 03:52:40;;;;;;;6.63;1.15;;;;;;;;;;4995946;28;20053;-81
2023/11/13 03:55:06;;;;;;;7.00;1.40;;;;;;;;;;4999066;28;20046;-83
2023/11/13 03:57:32;;;;;;;8.25;1.15;;;;;;;;;;4991842;28;20049;-84
2023/11/13 04:00:01;;;;;;;3.42;1.20;;;;;;;;;;5012155;28;20038;-83
2023/11/13 04:02:27;;;;;;;7.63;1.85;;;;;;;;;;5027668;28;20045;-82
2023/11/13 04:04:54;;;;;;;6.45;1.20;;;;;;;;;;4998103;28;20950;-82
2023/11/13 04:07:24;;;;;;;5.47;1.20;;;;;;;;;;4991906;28;20049;-80
2023/11/13 04:09:52;;;;;;;5.30;1.48;;;;;;;;;;4979146;28;20045;-82
2023/11/13 04:12:19;;;;;;;5.35;1.30;;;;;;;;;;4994679;28;20408;-83
2023/11/13 04:14:47;;;;;;;8.13;1.60;;;;;;;;;;5011740;28;20038;-82
2023/11/13 04:17:17;;;;;;;12.18;1.75;;;;;;;;;;4992586;28;20038;-81
2023/11/13 04:19:46;;;;;;;6.53;2.00;;;;;;;;;;5010747;28;20038;-81
2023/11/13 04:22:14;;;;;;;5.67;1.47;;;;;;;;;;4993916;28;20037;-81
2023/11/13 04:24:46;;;;;;;7.85;1.58;;;;;;;;;;5011511;28;20295;-81
2023/11/13 04:27:16;;;;;;;6.27;1.50;;;;;;;;;;5015227;28;20029;-81
2023/11/13 04:29:45;;;;;;;8.15;2.20;;;;;;;;;;4994236;28;20045;-81
2023/11/13 04:32:14;;;;;;;6.97;1.77;;;;;;;;;;4993812;28;20042;-81
2023/11/13 04:34:45;;;;;;;6.53;1.80;;;;;;;;;;5010916;28;20103;-82
2023/11/13 04:37:11;;;;;;;5.35;1.65;;;;;;;;;;4993541;28;20053;-81
2023/11/13 04:39:38;;;;;;;5.93;1.45;;;;;;;;;;5040581;28;20485;-81
2023/11/13 04:42:09;;;;;;;7.53;1.77;;;;;;;;;;5015922;28;20038;-81
2023/11/13 04:44:38;;;;;;;6.93;1.52;;;;;;;;;;5000235;28;20323;-82
2023/11/13 04:47:05;;;;;;;10.32;1.75;;;;;;;;;;5031973;28;20034;-84
2023/11/13 04:49:35;;;;;;;7.53;1.40;;;;;;;;;;5021460;28;20033;-79
2023/11/13 04:52:02;;;;;;;9.70;2.42;;;;;;;;;;5003522;28;20045;-81
2023/11/13 04:54:30;;;;;;;7.40;1.48;;;;;;;;;;5018564;28;20033;-82
2023/11/13 04:56:57;;;;;;;8.95;1.95;;;;;;;;;;5020772;28;20520;-78
2023/11/13 04:59:24;;;;;;;13.82;3.88;;;;;;;;;;5021459;28;20046;-80
2023/11/13 05:01:51;;;;;;;8.30;2.22;;;;;;;;;;4999330;28;20038;-82
2023/11/13 05:04:17;;;;;;;9.50;1.90;;;;;;;;;;5007853;28;20038;-80
2023/11/13 05:06:44;;;;;;;14.48;3.30;;;;;;;;;;5017625;28;20034;-80
2023/11/13 05:09:12;;;;;;;10.73;1.60;;;;;;;;;;5017874;28;20411;-80
2023/11/13 05:11:38;;;;;;;5.60;1.63;;;;;;;;;;5022889;28;20038;-83
2023/11/13 05:14:04;;;;;;;9.48;1.75;;;;;;;;;;5002310;28;20626;-81
2023/11/13 05:16:35;;;;;;;10.43;1.60;;;;;;;;;;5002489;28;20034;-79
2023/11/13 05:19:03;;;;;;;8.65;1.83;;;;;;;;;;5003870;28;20504;-80
2023/11/13 05:21:30;;;;;;;8.27;1.85;;;;;;;;;;4996657;28;20038;-82
2023/11/13 05:23:58;;;;;;;5.97;1.70;;;;;;;;;;5015528;28;20056;-82
2023/11/13 05:26:25;;;;;;;12.90;2.05;;;;;;;;;;5024632;28;20042;-82
2023/11/13 05:28:52;;;;;;;10.15;2.05;;;;;;;;;;5019742;28;20045;-80
2023/11/13 05:31:19;;;;;;;9.50;1.80;;;;;;;;;;5002922;28;20038;-83
2023/11/13 05:33:50;;;;;;;6.88;2.63;;;;;;;;;;5019735;28;20036;-80
2023/11/13 05:36:17;;;;;;;14.60;3.28;;;;;;;;;;5020546;28;20042;-83
2023/11/13 05:38:44;;;;;;;8.00;2.20;;;;;;;;;;5023134;28;20049;-81
2023/11/13 05:41:10;;;;;;;17.50;3.55;;;;;;;;;;5016164;28;20412;-81
2023/11/13 05:43:39;;;;;;;9.20;1.70;;;;;;;;;;5011684;28;20038;-82
2023/11/13 05:46:06;;;;;;;10.48;2.17;;;;;;;;;;5014686;28;20044;-82
2023/11/13 05:48:34;;;;;;;11.75;1.88;;;;;;;;;;5000996;28;20045;-80
2023/11/13 05:51:03;;;;;;;9.57;1.63;;;;;;;;;;5003645;28;20044;-83
2023/11/13 05:53:32;;;;;;;10.50;2.20;;;;;;;;;;5009372;28;20045;-80
2023/11/13 05:56:03;;;;;;;11.65;2.53;;;;;;;;;;5013731;28;20049;-82
2023/11/13 05:58:30;;;;;;;13.77;2.20;;;;;;;;;;5032455;28;20038;-80
2023/11/13 06:00:59;;;;;;;9.13;1.92;;;;;;;;;;5023984;28;20038;-80
2023/11/13 06:03:27;;;;;;;15.07;2.30;;;;;;;;;;5026618;28;20064;-83
2023/11/13 06:05:53;;;;;;;10.05;2.50;;;;;;;;;;5013056;28;20507;-83
2023/11/13 06:08:19;;;;;;;6.80;2.22;;;;;;;;;;5016744;28;20515;-81
2023/11/13 06:10:48;;;;;;;10.82;2.30;;;;;;;;;;5017079;28;20038;-81
2023/11/13 06:13:14;;;;;;;13.45;2.33;;;;;;;;;;5014026;28;20045;-79
2023/11/13 06:15:40;;;;;;;15.27;3.03;;;;;;;;;;5012335;28;20491;-81
2023/11/13 06:18:07;;;;;;;11.60;2.17;;;;;;;;;;5000630;28;20041;-80
2023/11/13 06:20:36;;;;;;;10.43;2.30;;;;;;;;;;4994264;28;20069;-80
2023/11/13 06:23:02;;;;;;;13.73;2.65;;;;;;;;;;5013664;28;20045;-80
2023/11/13 06:25:28;;;;;;;17.17;2.67;;;;;;;;;;5020611;28;20041;-81
2023/11/13 06:27:56;;;;;;;14.32;2.33;;;;;;;;;;5012102;28;20045;-79
2023/11/13 06:30:23;;;;;;;8.93;2.38;;;;;;;;;;4997216;28;20488;-80
2023/11/13 06:32:50;;;;;;;8.82;2.10;;;;;;;;;;5026229;28;20038;-79
2023/11/13 06:35:17;;;;;;;9.90;1.83;;;;;;;;;;5011846;28;20042;-79
2023/11/13 06:37:43;;;;;;;7.88;1.80;;;;;;;;;;5016799;28;20041;-78
2023/11/13 06:40:10;;;;;;;7.72;1.95;;;;;;;;;;5013559;28;20489;-79
2023/11/13 06:42:36;;;;;;;8.23;2.25;;;;;;;;;;4996370;28;20046;-79
2023/11/13 06:45:05;;;;;;;7.20;2.50;;;;;;;;;;4990972;28;20412;-78
2023/11/13 06:47:31;;;;;;;9.35;1.80;;;;;;;;;;4984719;28;20037;-78
2023/11/13 06:49:58;;;;;;;11.50;1.85;;;;;;;;;;5012006;28;20401;-80
2023/11/13 06:52:24;;;;;;;10.95;1.98;;;;;;;;;;4995764;28;20042;-77
2023/11/13 06:54:50;;;;;;;8.02;1.50;;;;;;;;;;5010981;28;20044;-77
2023/11/13 06:57:16;;;;;;;9.75;1.77;;;;;;;;;;5016170;28;20056;-77
2023/11/13 06:59:47;;;;;;;8.23;1.73;;;;;;;;;;4979650;28;20034;-79
2023/11/13 07:02:15;;;;;;;6.40;1.70;;;;;;;;;;5011978;28;20496;-80
2023/11/13 07:04:41;;;;;;;6.47;1.70;;;;;;;;;;5038781;28;20033;-76
2023/11/13 07:07:08;;;;;;;6.95;1.30;;;;;;;;;;5011381;28;20040;-80
2023/11/13 07:09:34;;;;;;;8.07;1.95;;;;;;;;;;5016696;28;20764;-79
2023/11/13 07:12:31;;;;;;;7.53;1.45;;;;;;;;;;5009397;28;20060;-79
2023/11/13 07:15:16;;;;;;;5.15;1.10;;;;;;;;;;5032439;23;20386;-59
2023/11/13 07:17:43;;;;;;;8.27;2.13;;;;;;;;;;5045804;28;20036;-57
2023/11/13 07:20:12;;;;;;;7.25;2.08;;;;;;;;;;5042858;28;20040;-56
2023/11/13 07:22:38;;;;;;;7.90;2.00;;;;;;;;;;5043523;28;20029;-54
2023/11/13 07:25:04;;;;;;;9.13;3.20;;;;;;;;;;5036346;28;20061;-55
2023/11/13 07:27:30;;;;;;;6.80;2.50;;;;;;;;;;5048078;28;20508;-54
2023/11/13 07:29:57;;;;;;;7.20;1.85;;;;;;;;;;5047235;28;20045;-54
2023/11/13 07:32:26;;;;;;;5.50;1.10;;;;;;;;;;5046956;28;20055;-58
2023/11/13 07:34:53;;;;;;;7.20;1.50;;;;;;;;;;5046794;28;20056;-54
2023/11/13 07:37:21;;;;;;;6.38;1.98;;;;;;;;;;5048335;28;20049;-54
2023/11/13 07:39:51;;;;;;;4.80;1.90;;;;;;;;;;5047022;28;20029;-55
2023/11/13 07:42:17;;;;;;;3.47;1.77;;;;;;;;;;5047982;28;20060;-55
2023/11/13 07:44:49;;;;;;;3.03;1.10;;;;;;;;;;5046875;28;20033;-54
2023/11/13 07:47:16;;;;;;;4.97;1.48;;;;;;;;;;5045091;28;20654;-54
2023/11/13 07:49:43;;;;;;;3.70;1.08;;;;;;;;;;5046227;28;20490;-54
2023/11/13 07:52:14;;;;;;;8.68;3.10;;;;;;;;;;5045942;28;20053;-54
2023/11/13 07:54:40;;;;;;;4.22;1.30;;;;;;;;;;5046401;28;20041;-53
2023/11/13 07:57:09;;;;;;;4.72;1.30;;;;;;;;;;5047032;28;20055;-55
2023/11/13 07:59:37;;;;;;;3.88;1.58;;;;;;;;;;5048446;28;20057;-54
2023/11/13 08:02:03;;;;;;;4.22;1.60;;;;;;;;;;5048143;28;20525;-54
2023/11/13 08:04:31;;;;;;;3.25;1.27;;;;;;;;;;5043407;28;20532;-55
2023/11/13 08:06:57;;;;;;;4.68;1.40;;;;;;;;;;5046121;28;20032;-53
2023/11/13 08:09:23;;;;;;;9.10;2.03;;;;;;;;;;5043569;28;20049;-54
2023/11/13 08:11:49;;;;;;;5.47;1.55;;;;;;;;;;5042539;28;20497;-55
2023/11/13 08:14:15;;;;;;;3.53;1.38;;;;;;;;;;5047313;28;20440;-55
2023/11/13 08:16:41;;;;;;;2.78;1.30;;;;;;;;;;5044689;28;20047;-55
2023/11/13 08:19:07;;;;;;;7.55;1.98;;;;;;;;;;5044231;28;20037;-55
2023/11/13 08:21:34;;;;;;;3.45;1.30;;;;;;;;;;5043958;28;20048;-54
2023/11/13 08:24:00;;;;;;;8.05;2.80;;;;;;;;;;5040555;28;20501;-54
2023/11/13 08:26:29;;;;;;;6.82;1.52;;;;;;;;;;5045858;28;20033;-54
2023/11/13 08:28:58;;;;;;;7.90;2.10;;;;;;;;;;5044226;28;20048;-55
2023/11/13 08:31:26;;;;;;;;;;;;;;;;;;5044485;28;20037;-54
2023/11/13 08:33:53;;;;;;;6.35;2.13;;;;;;;;;;5045863;28;20404;-55
2023/11/13 08:36:23;;;;;;;5.00;1.80;;;;;;;;;;5046288;28;20540;-56
2023/11/13 08:38:53;;;;;;;7.13;2.97;;;;;;;;;;5046575;28;20056;-54
2023/11/13 08:41:19;;;;;;;;;;;;;;;;;;5047609;28;20041;-54
2023/11/13 08:43:45;;;;;;;8.75;1.85;;;;;;;;;;5046781;28;20377;-53
2023/11/13 08:46:12;;;;;;;6.85;2.05;;;;;;;;;;5044778;28;20028;-55
2023/11/13 08:48:38;;;;;;;4.55;1.50;;;;;;;;;;5047407;28;20405;-56
2023/11/13 08:51:07;;;;;;;5.03;1.30;;;;;;;;;;5041496;28;20033;-55
2023/11/13 08:53:42;;;;;;;3.97;1.20;;;;;;;;;;5047771;28;20057;-55
2023/11/13 08:56:15;;;;;;;4.82;1.30;;;;;;;;;;5040266;28;20037;-56
2023/11/13 08:58:42;;;;;;;4.07;0.95;;;;;;;;;;5041942;28;20038;-57
2023/11/13 09:01:08;;;;;;;2.20;0.80;;;;;;;;;;5042935;28;20060;-55
2023/11/13 09:03:34;;;;;;;5.07;0.95;;;;;;;;;;5046241;28;20410;-55
2023/11/13 09:06:08;;;;;;;4.22;1.20;;;;;;;;;;5041562;28;20054;-55
2023/11/13 09:08:35;;;;;;;2.33;1.23;;;;;;;;;;5047085;28;20033;-55
2023/11/13 09:11:04;;;;;;;2.70;0.90;;;;;;;;;;5046979;28;20741;-55
2023/11/13 09:13:30;;;;;;;4.75;1.10;;;;;;;;;;5046009;28;20049;-56
2023/11/13 09:15:56;;;;;;;2.75;1.00;;;;;;;;;;5043185;28;20049;-54
2023/11/13 09:18:26;;;;;;;3.17;1.17;;;;;;;;;;5037519;28;20042;-56
2023/11/13 09:20:54;;;;;;;3.40;0.98;;;;;;;;;;5040312;28;20131;-55
2023/11/13 09:23:21;;;;;;;1.48;0.90;;;;;;;;;;5046794;28;20044;-55
2023/11/13 09:25:48;;;;;;;3.60;1.00;;;;;;;;;;5044272;28;20614;-56
2023/11/13 09:28:14;;;;;;;2.28;1.27;;;;;;;;;;5050892;28;20512;-55
2023/11/13 09:30:41;;;;;;;3.17;1.02;;;;;;;;;;5048384;28;20505;-56
2023/11/13 09:33:10;;;;;;;4.53;1.30;;;;;;;;;;5049202;28;20037;-55
2023/11/13 09:35:37;;;;;;;2.67;1.00;;;;;;;;;;5048205;28;20040;-56
2023/11/13 09:38:04;;;;;;;2.28;0.82;;;;;;;;;;5050090;28;20041;-56
2023/11/13 09:40:34;;;;;;;2.85;1.50;;;;;;;;;;5049075;28;20052;-55
2023/11/13 09:43:39;;;;;;;3.10;1.15;;;;;;;;;;5050624;28;20033;-55
2023/11/13 09:46:08;;;;;;;2.80;1.30;;;;;;;;;;5044547;28;20033;-55
2023/11/13 09:48:43;;;;;;;4.00;1.83;;;;;;;;;;5047636;28;20643;-55
2023/11/13 09:51:13;;;;;;;4.18;1.50;;;;;;;;;;5045396;28;20743;-55
2023/11/13 09:53:42;;;;;;;7.55;1.92;;;;;;;;;;5050195;28;20369;-55
2023/11/13 09:56:13;;;;;;;6.50;1.92;;;;;;;;;;5045681;28;20041;-55
2023/11/13 09:58:41;;;;;;;6.00;1.65;;;;;;;;;;5048045;28;20041;-54
2023/11/13 10:01:10;;;;;;;6.55;1.48;;;;;;;;;;5049641;28;20063;-55
2023/11/13 10:03:36;;;;;;;5.63;1.70;;;;;;;;;;5048616;28;20040;-55
2023/11/13 10:06:09;;;;;;;3.05;1.50;;;;;;;;;;5048120;28;20043;-55
2023/11/13 10:08:47;;;;;;;6.60;2.13;;;;;;;;;;5049828;28;20028;-56
2023/11/13 10:11:13;;;;;;;4.40;2.10;;;;;;;;;;5049079;28;20057;-54
2023/11/13 10:13:39;;;;;;;12.40;1.98;;;;;;;;;;5048386;28;20037;-55
2023/11/13 10:16:18;;;;;;;6.18;1.98;;;;;;;;;;5044662;28;20040;-56
2023/11/13 10:18:45;;;;;;;6.75;1.55;;;;;;;;;;5042306;28;20033;-55
2023/11/13 10:21:32;;;;;;;7.53;1.52;;;;;;;;;;5048407;28;20056;-56
2023/11/13 10:24:21;;;;;;;6.60;1.92;;;;;;;;;;5049091;28;20040;-55
2023/11/13 10:26:49;;;;;;;5.47;1.92;;;;;;;;;;5046980;28;20037;-55
2023/11/13 10:29:27;;;;;;;5.30;1.70;;;;;;;;;;5047137;28;20041;-54
2023/11/13 10:31:54;;;;;;;6.40;2.00;;;;;;;;;;5048773;28;20037;-55
2023/11/13 10:34:20;;;;;;;9.52;2.28;;;;;;;;;;5049583;28;20040;-54
2023/11/13 10:37:10;;;;;;;9.43;1.73;;;;;;;;;;5046065;28;20054;-54
2023/11/13 10:39:37;;;;;;;;;;;;;;;;;;5049291;28;20044;-55
2023/11/13 10:42:25;;;;;;;5.68;1.95;;;;;;;;;;5049628;28;19920;-56
2023/11/13 10:45:01;;;;;;;8.68;2.00;;;;;;;;;;5046963;28;20052;-55
2023/11/13 10:47:35;;;;;;;4.43;1.70;;;;;;;;;;5047798;28;20395;-55
2023/11/13 10:50:02;;;;;;;4.63;1.92;;;;;;;;;;5049775;28;20044;-55
2023/11/13 10:52:29;;;;;;;3.20;1.30;;;;;;;;;;5048818;28;20044;-55
2023/11/13 10:54:57;;;;;;;4.13;1.52;;;;;;;;;;5047335;28;20044;-55
2023/11/13 10:57:26;;;;;;;6.28;1.80;;;;;;;;;;5049449;28;20060;-54
2023/11/13 10:59:55;;;;;;;6.93;1.60;;;;;;;;;;5041819;28;20028;-56
2023/11/13 11:02:29;;;;;;;7.43;4.05;;;;;;;;;;5048442;28;20052;-55
2023/11/13 11:04:59;;;;;;;8.23;1.92;;;;;;;;;;5047311;28;20040;-57
2023/11/13 11:07:26;;;;;;;5.68;2.65;;;;;;;;;;5048799;28;20021;-54
2023/11/13 11:10:00;;;;;;;6.40;2.40;;;;;;;;;;5047721;28;20056;-55
2023/11/13 11:12:48;;;;;;;5.45;1.50;;;;;;;;;;5048622;28;20048;-56
2023/11/13 11:15:59;;;;;;;6.60;1.45;;;;;;;;;;5037430;28;20045;-56
2023/11/13 11:18:35;;;;;;;5.20;1.77;;;;;;;;;;5035406;28;20037;-56
2023/11/13 11:21:06;;;;;;;7.47;1.63;;;;;;;;;;5048548;28;20040;-55
2023/11/13 11:23:39;;;;;;;3.33;1.25;;;;;;;;;;5043989;28;20151;-54
2023/11/13 11:26:06;;;;;;;5.60;1.70;;;;;;;;;;5042549;28;20040;-54
2023/11/13 11:28:51;;;;;;;2.30;1.60;;;;;;;;;;5047942;28;20029;-54
2023/11/13 11:31:30;;;;;;;5.72;2.33;;;;;;;;;;5043915;28;20431;-54
2023/11/13 11:33:57;;;;;;;5.87;2.00;;;;;;;;;;5048016;28;20390;-55
2023/11/13 11:36:33;;;;;;;6.10;2.10;;;;;;;;;;5047009;28;20115;-55
2023/11/13 11:39:11;;;;;;;8.40;1.52;;;;;;;;;;5048024;28;20048;-55
2023/11/13 11:41:42;;;;;;;5.80;1.93;;;;;;;;;;5046901;28;20045;-56
2023/11/13 11:44:16;;;;;;;4.82;1.55;;;;;;;;;;5048218;28;20045;-53
2023/11/13 11:46:49;;;;;;;3.80;1.92;;;;;;;;;;5044115;28;20536;-55
2023/11/13 11:49:25;;;;;;;6.28;2.15;;;;;;;;;;5047485;28;20052;-55
2023/11/13 11:52:08;;;;;;;4.13;1.20;;;;;;;;;;5043120;28;20056;-55
2023/11/13 11:54:35;;;;;;;6.75;1.77;;;;;;;;;;5047122;28;20036;-54
2023/11/13 11:57:03;;;;;;;4.57;1.50;;;;;;;;;;5046583;28;20501;-56
2023/11/13 11:59:30;;;;;;;8.20;1.75;;;;;;;;;;5047939;28;20036;-54
2023/11/13 12:01:58;;;;;;;4.47;1.10;;;;;;;;;;5046606;28;20056;-56
2023/11/13 12:04:25;;;;;;;3.50;2.10;;;;;;;;;;5047778;28;20413;-54
2023/11/13 12:06:52;;;;;;;5.20;1.83;;;;;;;;;;5045435;28;20041;-54
2023/11/13 12:09:20;;;;;;;3.15;1.35;;;;;;;;;;5041464;28;20036;-54
2023/11/13 12:11:51;;;;;;;4.95;1.80;;;;;;;;;;5046426;28;20040;-55
2023/11/13 12:14:18;;;;;;;3.38;1.60;;;;;;;;;;5040013;28;20033;-54
2023/11/13 12:16:46;;;;;;;4.32;1.27;;;;;;;;;;5044389;28;20061;-56
2023/11/13 12:19:12;;;;;;;3.20;1.83;;;;;;;;;;5043704;28;20043;-55
2023/11/13 12:21:43;;;;;;;2.35;1.20;;;;;;;;;;5046776;28;20025;-55
2023/11/13 12:24:12;;;;;;;3.75;1.40;;;;;;;;;;5047730;28;20056;-54
2023/11/13 12:26:41;;;;;;;2.70;1.10;;;;;;;;;;5044442;28;20029;-54
2023/11/13 12:29:18;;;;;;;5.82;1.80;;;;;;;;;;5046344;28;20044;-55
2023/11/13 12:31:46;;;;;;;5.03;2.65;;;;;;;;;;5046125;28;20497;-55
2023/11/13 12:34:16;;;;;;;5.97;2.70;;;;;;;;;;5044727;28;20416;-54
2023/11/13 12:36:46;;;;;;;11.15;5.40;;;;;;;;;;5043461;28;20064;-53
2023/11/13 12:39:26;;;;;;;7.53;3.25;;;;;;;;;;5045788;28;20056;-55
2023/11/13 12:41:52;;;;;;;;;;;;;;;;;;5047125;28;20053;-54
2023/11/13 12:44:20;;;;;;;7.28;2.28;;;;;;;;;;5044599;28;20056;-54
2023/11/13 12:46:47;;;;;;;8.40;2.90;;;;;;;;;;5045367;28;20063;-55
2023/11/13 12:49:15;;;;;;;8.23;3.08;;;;;;;;;;5047349;28;20044;-54
2023/11/13 12:51:41;;;;;;;2.85;1.50;;;;;;;;;;5046762;28;20044;-54
2023/11/13 12:54:12;;;;;;;3.28;1.38;;;;;;;;;;5047422;28;20055;-54
2023/11/13 12:56:47;;;;;;;3.45;1.98;;;;;;;;;;5044563;28;20052;-55
2023/11/13 12:59:15;;;;;;;3.40;1.30;;;;;;;;;;5047339;28;20049;-55
2023/11/13 13:01:45;;;;;;;3.33;1.92;;;;;;;;;;5048014;28;20044;-53
2023/11/13 13:04:17;;;;;;;2.85;1.30;;;;;;;;;;5051523;28;20032;-55
2023/11/13 13:06:43;;;;;;;2.83;1.75;;;;;;;;;;5049014;28;20072;-54
2023/11/13 13:09:12;;;;;;;2.25;1.50;;;;;;;;;;5051408;28;20048;-52
2023/11/13 13:11:40;;;;;;;5.20;2.00;;;;;;;;;;5048873;28;20056;-55
2023/11/13 13:14:08;;;;;;;3.78;1.45;;;;;;;;;;5048470;28;20036;-54
2023/11/13 13:16:37;;;;;;;5.30;1.75;;;;;;;;;;5041764;28;20033;-56
2023/11/13 13:19:09;;;;;;;12.20;4.18;;;;;;;;;;5050867;28;20052;-56
2023/11/13 13:21:36;;;;;;;5.00;2.15;;;;;;;;;;5050643;28;20387;-55
2023/11/13 13:24:06;;;;;;;10.07;3.90;;;;;;;;;;5051278;28;20549;-56
2023/11/13 13:26:36;;;;;;;2.85;1.60;;;;;;;;;;5049317;28;20621;-56
2023/11/13 13:29:02;;;;;;;1.95;1.10;;;;;;;;;;5050699;28;20028;-54
2023/11/13 13:31:31;;;;;;;5.72;1.92;;;;;;;;;;5050798;28;20033;-55
2023/11/13 13:33:58;;;;;;;2.08;1.30;;;;;;;;;;5049765;28;20056;-56
2023/11/13 13:36:24;;;;;;;3.00;1.40;;;;;;;;;;5049526;28;20441;-55
2023/11/13 13:38:51;;;;;;;3.15;1.73;;;;;;;;;;5050365;28;20036;-55
2023/11/13 13:41:21;;;;;;;2.22;1.10;;;;;;;;;;5048377;28;20056;-55
2023/11/13 13:43:51;;;;;;;2.83;1.63;;;;;;;;;;5050030;28;20037;-55
2023/11/13 13:46:18;;;;;;;;;;;;;;;;;;5049556;28;20037;-56
2023/11/13 13:48:47;;;;;;;3.53;1.05;;;;;;;;;;5050183;28;19913;-55
2023/11/13 13:51:15;;;;;;;3.10;1.08;;;;;;;;;;5050356;28;20056;-54
2023/11/13 13:53:42;;;;;;;3.00;1.10;;;;;;;;;;5049878;28;20532;-55
2023/11/13 13:56:18;;;;;;;2.00;1.20;;;;;;;;;;5049533;28;20048;-56
2023/11/13 13:58:46;;;;;;;2.42;1.02;;;;;;;;;;5049762;28;20063;-55
2023/11/13 14:01:13;;;;;;;1.70;0.93;;;;;;;;;;5050541;28;20049;-56
2023/11/13 14:03:40;;;;;;;1.27;0.90;;;;;;;;;;5048027;28;20100;-56
2023/11/13 14:06:12;;;;;;;1.83;1.10;;;;;;;;;;5049528;28;20044;-55
2023/11/13 14:08:39;;;;;;;1.83;0.80;;;;;;;;;;5043369;28;20052;-55
2023/11/13 14:11:05;;;;;;;2.35;1.30;;;;;;;;;;5042566;28;20050;-55
2023/11/13 14:13:34;;;;;;;1.27;1.10;;;;;;;;;;5035650;28;20037;-55
2023/11/13 14:16:01;;;;;;;2.55;1.20;;;;;;;;;;5048478;28;20048;-53
2023/11/13 14:18:29;;;;;;;3.28;1.00;;;;;;;;;;5050455;28;20052;-55
2023/11/13 14:20:55;;;;;;;6.60;2.33;;;;;;;;;;5049784;28;20052;-56
2023/11/13 14:23:25;;;;;;;1.27;0.98;;;;;;;;;;5050169;28;20033;-55
2023/11/13 14:25:54;;;;;;;2.63;0.95;;;;;;;;;;5047683;28;20044;-56
2023/11/13 14:28:21;;;;;;;3.80;1.02;;;;;;;;;;5050099;28;20041;-55
2023/11/13 14:30:48;;;;;;;4.72;2.00;;;;;;;;;;5048143;28;20666;-53
2023/11/13 14:33:16;;;;;;;1.17;1.08;;;;;;;;;;5049446;28;20029;-55
2023/11/13 14:35:43;;;;;;;1.20;0.90;;;;;;;;;;5045379;28;20506;-55
2023/11/13 14:38:11;;;;;;;1.02;0.90;;;;;;;;;;5049617;28;20049;-55
2023/11/13 14:40:40;;;;;;;1.20;0.95;;;;;;;;;;5048800;28;20493;-55
2023/11/13 14:43:06;;;;;;;1.98;0.90;;;;;;;;;;5042378;28;20052;-55
2023/11/13 14:45:33;;;;;;;2.00;0.85;;;;;;;;;;5043590;28;20425;-55
2023/11/13 14:47:59;;;;;;;1.45;1.02;;;;;;;;;;5048305;28;20040;-55
2023/11/13 14:50:27;;;;;;;2.45;0.93;;;;;;;;;;5046749;28;20068;-55
2023/11/13 14:52:55;;;;;;;2.45;0.90;;;;;;;;;;5041542;28;20076;-55